sensor_id;sensor_type;location;lat;lon;timestamp;temperature;humidity
3154;DHT22;1587;48.630;9.046;2023-04-22T14:44:54;20.40;65.50
3154;DHT22;1587;48.630;9.046;2023-04-22T14:49:17;20.30;65.60
3154;DHT22;1587;48.630;9.046;2023-04-22T14:51:43;20.30;65.40
3154;DHT22;1587;48.630;9.046;2023-04-22T14:54:08;20.60;65.60
3154;DHT22;1587;48.630;9.046;2023-04-22T14:56:34;20.10;66.60
3154;DHT22;1587;48.630;9.046;2023-04-22T14:59:00;19.60;64.30
3154;DHT22;1587;48.630;9.046;2023-04-22T15:01:26;19.80;69.10
3154;DHT22;1587;48.630;9.046;2023-04-22T15:03:51;19.70;68.10
3154;DHT22;1587;48.630;9.046;2023-04-22T15:06:17;19.50;70.10
3154;DHT22;1587;48.630;9.046;2023-04-22T15:08:42;19.30;71.30
3154;DHT22;1587;48.630;9.046;2023-04-22T15:11:08;18.90;73.10
3154;DHT22;1587;48.630;9.046;2023-04-22T15:13:33;19.40;72.20
3154;DHT22;1587;48.630;9.046;2023-04-22T15:15:59;19.70;73.40
3154;DHT22;1587;48.630;9.046;2023-04-22T15:18:24;20.00;73.40
3154;DHT22;1587;48.630;9.046;2023-04-22T15:20:50;19.60;72.10
3154;DHT22;1587;48.630;9.046;2023-04-22T15:23:15;20.00;71.90
3154;DHT22;1587;48.630;9.046;2023-04-22T15:25:41;19.80;71.90
3154;DHT22;1587;48.630;9.046;2023-04-22T15:28:06;19.80;73.30
3154;DHT22;1587;48.630;9.046;2023-04-22T15:30:32;19.70;71.20
3154;DHT22;1587;48.630;9.046;2023-04-22T15:35:21;19.60;74.10
3154;DHT22;1587;48.630;9.046;2023-04-22T15:37:46;19.80;73.10
3154;DHT22;1587;48.630;9.046;2023-04-22T15:40:12;19.60;75.10
3154;DHT22;1587;48.630;9.046;2023-04-22T15:42:37;19.50;73.80
3154;DHT22;1587;48.630;9.046;2023-04-22T15:45:03;19.50;72.10
3154;DHT22;1587;48.630;9.046;2023-04-22T15:47:28;19.60;73.00
3154;DHT22;1587;48.630;9.046;2023-04-22T15:49:54;19.60;73.60
3154;DHT22;1587;48.630;9.046;2023-04-22T15:52:22;19.50;72.60
3154;DHT22;1587;48.630;9.046;2023-04-22T15:54:47;19.70;73.30
3154;DHT22;1587;48.630;9.046;2023-04-22T15:57:14;19.80;71.80
3154;DHT22;1587;48.630;9.046;2023-04-22T15:59:40;20.60;73.20
3154;DHT22;1587;48.630;9.046;2023-04-22T16:02:05;20.30;71.50
3154;DHT22;1587;48.630;9.046;2023-04-22T16:04:31;20.20;72.90
3154;DHT22;1587;48.630;9.046;2023-04-22T16:06:56;19.90;72.70
3154;DHT22;1587;48.630;9.046;2023-04-22T16:09:23;19.70;73.60
3154;DHT22;1587;48.630;9.046;2023-04-22T16:11:49;19.40;73.30
3154;DHT22;1587;48.630;9.046;2023-04-22T16:14:14;19.10;73.50
3154;DHT22;1587;48.630;9.046;2023-04-22T16:16:41;19.00;73.50
3154;DHT22;1587;48.630;9.046;2023-04-22T16:19:07;18.80;74.10
3154;DHT22;1587;48.630;9.046;2023-04-22T16:21:32;18.70;73.90
3154;DHT22;1587;48.630;9.046;2023-04-22T16:23:58;18.60;76.10
3154;DHT22;1587;48.630;9.046;2023-04-22T16:26:25;18.50;75.50
3154;DHT22;1587;48.630;9.046;2023-04-22T16:28:50;18.30;76.80
3154;DHT22;1587;48.630;9.046;2023-04-22T16:31:15;18.30;77.50
3154;DHT22;1587;48.630;9.046;2023-04-22T16:33:43;18.30;73.40
3154;DHT22;1587;48.630;9.046;2023-04-22T16:36:09;18.30;74.50
3154;DHT22;1587;48.630;9.046;2023-04-22T16:38:35;18.30;74.80
3154;DHT22;1587;48.630;9.046;2023-04-22T16:41:00;18.20;71.60
3154;DHT22;1587;48.630;9.046;2023-04-22T16:43:26;18.20;72.60
3154;DHT22;1587;48.630;9.046;2023-04-22T16:45:52;18.10;73.90
3154;DHT22;1587;48.630;9.046;2023-04-22T16:48:18;18.00;74.10
3154;DHT22;1587;48.630;9.046;2023-04-22T16:50:43;17.80;74.40
3154;DHT22;1587;48.630;9.046;2023-04-22T16:53:09;17.80;73.30
3154;DHT22;1587;48.630;9.046;2023-04-22T16:55:36;17.70;74.30
3154;DHT22;1587;48.630;9.046;2023-04-22T16:58:01;17.60;75.30
3154;DHT22;1587;48.630;9.046;2023-04-22T17:00:28;17.50;76.80
3154;DHT22;1587;48.630;9.046;2023-04-22T17:02:53;17.30;77.50
3154;DHT22;1587;48.630;9.046;2023-04-22T17:05:19;17.30;77.90
3154;DHT22;1587;48.630;9.046;2023-04-22T17:07:45;17.00;77.50
3154;DHT22;1587;48.630;9.046;2023-04-22T17:10:10;17.30;76.30
3154;DHT22;1587;48.630;9.046;2023-04-22T17:12:36;17.20;78.20
3154;DHT22;1587;48.630;9.046;2023-04-22T17:15:01;17.10;78.70
3154;DHT22;1587;48.630;9.046;2023-04-22T17:17:28;17.10;78.60
3154;DHT22;1587;48.630;9.046;2023-04-22T17:19:53;17.00;78.60
3154;DHT22;1587;48.630;9.046;2023-04-22T17:22:19;17.00;79.80
3154;DHT22;1587;48.630;9.046;2023-04-22T17:24:44;17.00;79.20
3154;DHT22;1587;48.630;9.046;2023-04-22T17:27:10;17.00;79.00
3154;DHT22;1587;48.630;9.046;2023-04-22T17:29:39;17.20;77.00
3154;DHT22;1587;48.630;9.046;2023-04-22T17:32:05;17.10;78.90
3154;DHT22;1587;48.630;9.046;2023-04-22T17:34:30;16.90;79.30
3154;DHT22;1587;48.630;9.046;2023-04-22T17:36:56;16.90;80.30
3154;DHT22;1587;48.630;9.046;2023-04-22T17:39:21;16.70;80.80
3154;DHT22;1587;48.630;9.046;2023-04-22T17:41:47;16.70;81.90
3154;DHT22;1587;48.630;9.046;2023-04-22T17:44:12;16.60;82.50
3154;DHT22;1587;48.630;9.046;2023-04-22T17:46:38;16.50;82.60
3154;DHT22;1587;48.630;9.046;2023-04-22T17:49:05;16.30;84.50
3154;DHT22;1587;48.630;9.046;2023-04-22T17:51:30;16.40;84.70
3154;DHT22;1587;48.630;9.046;2023-04-22T17:53:56;16.30;85.00
3154;DHT22;1587;48.630;9.046;2023-04-22T17:56:22;16.30;85.80
3154;DHT22;1587;48.630;9.046;2023-04-22T17:58:48;16.00;88.00
3154;DHT22;1587;48.630;9.046;2023-04-22T18:01:13;15.80;89.70
3154;DHT22;1587;48.630;9.046;2023-04-22T18:03:38;15.60;90.90
3154;DHT22;1587;48.630;9.046;2023-04-22T18:06:06;15.50;91.10
3154;DHT22;1587;48.630;9.046;2023-04-22T18:08:31;15.40;91.90
3154;DHT22;1587;48.630;9.046;2023-04-22T18:10:57;15.40;92.50
3154;DHT22;1587;48.630;9.046;2023-04-22T18:13:22;15.10;93.30
3154;DHT22;1587;48.630;9.046;2023-04-22T18:15:48;14.50;93.60
3154;DHT22;1587;48.630;9.046;2023-04-22T18:18:13;15.00;94.10
3154;DHT22;1587;48.630;9.046;2023-04-22T18:20:40;14.90;94.50
3154;DHT22;1587;48.630;9.046;2023-04-22T18:23:06;14.70;95.20
3154;DHT22;1587;48.630;9.046;2023-04-22T18:25:32;14.70;95.60
3154;DHT22;1587;48.630;9.046;2023-04-22T18:27:57;14.70;96.30
3154;DHT22;1587;48.630;9.046;2023-04-22T18:30:23;14.50;97.00
3154;DHT22;1587;48.630;9.046;2023-04-22T18:32:48;14.40;97.90
3154;DHT22;1587;48.630;9.046;2023-04-22T18:35:14;14.40;97.90
3154;DHT22;1587;48.630;9.046;2023-04-22T18:37:43;14.40;98.20
3154;DHT22;1587;48.630;9.046;2023-04-22T18:40:09;14.30;98.40
3154;DHT22;1587;48.630;9.046;2023-04-22T18:42:34;14.30;98.80
3154;DHT22;1587;48.630;9.046;2023-04-22T18:45:00;14.20;99.70
3154;DHT22;1587;48.630;9.046;2023-04-22T18:47:27;14.00;99.90
3154;DHT22;1587;48.630;9.046;2023-04-22T18:49:53;13.90;99.90
3154;DHT22;1587;48.630;9.046;2023-04-22T18:52:18;13.70;99.90
3154;DHT22;1587;48.630;9.046;2023-04-22T18:54:44;13.70;99.90
3154;DHT22;1587;48.630;9.046;2023-04-22T18:57:10;13.60;99.90
3154;DHT22;1587;48.630;9.046;2023-04-22T19:00:53;13.40;99.90
3154;DHT22;1587;48.630;9.046;2023-04-22T19:03:18;13.40;99.90
3154;DHT22;1587;48.630;9.046;2023-04-22T19:05:44;13.50;99.90
3154;DHT22;1587;48.630;9.046;2023-04-22T19:12:48;13.20;99.90
3154;DHT22;1587;48.630;9.046;2023-04-22T19:16:43;13.20;99.90
3154;DHT22;1587;48.630;9.046;2023-04-22T19:20:03;13.10;99.90
3154;DHT22;1587;48.630;9.046;2023-04-22T19:22:29;13.10;99.90
3154;DHT22;1587;48.630;9.046;2023-04-22T19:24:55;13.00;99.90
3154;DHT22;1587;48.630;9.046;2023-04-22T19:27:23;12.90;99.90
3154;DHT22;1587;48.630;9.046;2023-04-22T19:29:48;12.80;99.90
3154;DHT22;1587;48.630;9.046;2023-04-22T19:32:34;12.80;99.90
3154;DHT22;1587;48.630;9.046;2023-04-22T19:35:00;12.80;99.90
3154;DHT22;1587;48.630;9.046;2023-04-22T19:39:57;12.70;99.90
3154;DHT22;1587;48.630;9.046;2023-04-22T19:44:36;12.60;99.90
3154;DHT22;1587;48.630;9.046;2023-04-22T19:47:02;12.70;99.90
3154;DHT22;1587;48.630;9.046;2023-04-22T19:49:27;12.70;99.90
3154;DHT22;1587;48.630;9.046;2023-04-22T19:52:34;12.70;99.90
3154;DHT22;1587;48.630;9.046;2023-04-22T19:55:01;12.60;99.90
3154;DHT22;1587;48.630;9.046;2023-04-22T19:57:40;12.60;99.90
3154;DHT22;1587;48.630;9.046;2023-04-22T20:00:06;12.50;99.90
3154;DHT22;1587;48.630;9.046;2023-04-22T20:02:33;12.30;99.90
3154;DHT22;1587;48.630;9.046;2023-04-22T20:06:14;12.20;99.90
3154;DHT22;1587;48.630;9.046;2023-04-22T20:08:41;12.10;99.90
3154;DHT22;1587;48.630;9.046;2023-04-22T20:11:47;12.10;99.90
3154;DHT22;1587;48.630;9.046;2023-04-22T20:16:19;12.00;99.90
3154;DHT22;1587;48.630;9.046;2023-04-22T20:18:45;11.90;99.90
3154;DHT22;1587;48.630;9.046;2023-04-22T20:21:11;12.00;99.90
3154;DHT22;1587;48.630;9.046;2023-04-22T20:23:37;12.10;99.90
3154;DHT22;1587;48.630;9.046;2023-04-22T20:26:03;12.10;99.90
3154;DHT22;1587;48.630;9.046;2023-04-22T20:31:03;12.10;99.90
3154;DHT22;1587;48.630;9.046;2023-04-22T20:33:29;12.10;99.90
3154;DHT22;1587;48.630;9.046;2023-04-22T20:37:18;11.90;99.90
3154;DHT22;1587;48.630;9.046;2023-04-22T20:39:44;11.80;99.90
3154;DHT22;1587;48.630;9.046;2023-04-22T20:42:57;11.80;99.90
3154;DHT22;1587;48.630;9.046;2023-04-22T20:45:23;11.60;99.90
3154;DHT22;1587;48.630;9.046;2023-04-22T20:47:48;11.60;99.90
3154;DHT22;1587;48.630;9.046;2023-04-22T20:50:14;11.60;99.90
3154;DHT22;1587;48.630;9.046;2023-04-22T20:52:40;11.70;99.90
3154;DHT22;1587;48.630;9.046;2023-04-22T20:55:05;11.50;99.90
3154;DHT22;1587;48.630;9.046;2023-04-22T20:57:31;11.50;99.90
3154;DHT22;1587;48.630;9.046;2023-04-22T20:59:57;11.40;99.90
3154;DHT22;1587;48.630;9.046;2023-04-22T21:02:22;11.40;99.90
3154;DHT22;1587;48.630;9.046;2023-04-22T21:04:49;11.50;99.90
3154;DHT22;1587;48.630;9.046;2023-04-22T21:07:14;11.50;99.90
3154;DHT22;1587;48.630;9.046;2023-04-22T21:10:33;11.40;99.90
3154;DHT22;1587;48.630;9.046;2023-04-22T21:12:58;11.50;99.90
3154;DHT22;1587;48.630;9.046;2023-04-22T21:15:24;11.50;99.90
3154;DHT22;1587;48.630;9.046;2023-04-22T21:18:30;11.40;99.90
3154;DHT22;1587;48.630;9.046;2023-04-22T21:20:56;11.30;99.90
3154;DHT22;1587;48.630;9.046;2023-04-22T21:24:42;11.30;99.90
3154;DHT22;1587;48.630;9.046;2023-04-22T21:27:08;11.30;99.90
3154;DHT22;1587;48.630;9.046;2023-04-22T21:30:18;11.30;99.90
3154;DHT22;1587;48.630;9.046;2023-04-22T21:33:47;11.10;99.90
3154;DHT22;1587;48.630;9.046;2023-04-22T21:36:13;11.10;99.90
3154;DHT22;1587;48.630;9.046;2023-04-22T21:39:03;11.20;99.90
3154;DHT22;1587;48.630;9.046;2023-04-22T21:41:28;11.20;99.90
3154;DHT22;1587;48.630;9.046;2023-04-22T21:43:54;11.20;99.90
3154;DHT22;1587;48.630;9.046;2023-04-22T21:48:09;11.40;99.90
3154;DHT22;1587;48.630;9.046;2023-04-22T21:50:34;11.50;99.90
3154;DHT22;1587;48.630;9.046;2023-04-22T21:53:00;11.50;99.90
3154;DHT22;1587;48.630;9.046;2023-04-22T21:55:25;11.40;99.90
3154;DHT22;1587;48.630;9.046;2023-04-22T21:57:51;11.30;99.90
3154;DHT22;1587;48.630;9.046;2023-04-22T22:00:17;11.30;99.90
3154;DHT22;1587;48.630;9.046;2023-04-22T22:02:43;11.30;99.90
3154;DHT22;1587;48.630;9.046;2023-04-22T22:05:09;11.30;99.90
3154;DHT22;1587;48.630;9.046;2023-04-22T22:07:36;11.40;99.90
3154;DHT22;1587;48.630;9.046;2023-04-22T22:10:09;11.40;99.90
3154;DHT22;1587;48.630;9.046;2023-04-22T22:12:35;11.40;99.90
3154;DHT22;1587;48.630;9.046;2023-04-22T22:15:01;11.50;99.90
3154;DHT22;1587;48.630;9.046;2023-04-22T22:17:27;11.50;99.90
3154;DHT22;1587;48.630;9.046;2023-04-22T22:19:53;11.50;99.90
3154;DHT22;1587;48.630;9.046;2023-04-22T22:22:20;11.30;99.90
3154;DHT22;1587;48.630;9.046;2023-04-22T22:24:45;11.40;99.90
3154;DHT22;1587;48.630;9.046;2023-04-22T22:27:11;11.40;99.90
3154;DHT22;1587;48.630;9.046;2023-04-22T22:29:36;11.50;99.90
3154;DHT22;1587;48.630;9.046;2023-04-22T22:32:05;11.50;99.90
3154;DHT22;1587;48.630;9.046;2023-04-22T22:34:30;11.40;99.90
3154;DHT22;1587;48.630;9.046;2023-04-22T22:36:56;11.30;99.90
3154;DHT22;1587;48.630;9.046;2023-04-22T22:39:21;11.50;99.90
3154;DHT22;1587;48.630;9.046;2023-04-22T22:41:47;11.40;99.90
3154;DHT22;1587;48.630;9.046;2023-04-22T22:44:13;11.30;99.90
3154;DHT22;1587;48.630;9.046;2023-04-22T22:46:38;11.20;99.90
3154;DHT22;1587;48.630;9.046;2023-04-22T22:49:04;11.20;99.90
3154;DHT22;1587;48.630;9.046;2023-04-22T22:51:30;11.30;99.90
3154;DHT22;1587;48.630;9.046;2023-04-22T22:53:57;11.20;99.90
3154;DHT22;1587;48.630;9.046;2023-04-22T22:56:22;11.30;99.90
3154;DHT22;1587;48.630;9.046;2023-04-22T22:58:48;11.40;99.90
3154;DHT22;1587;48.630;9.046;2023-04-22T23:01:13;11.40;99.90
3154;DHT22;1587;48.630;9.046;2023-04-22T23:03:39;11.40;99.90
3154;DHT22;1587;48.630;9.046;2023-04-22T23:06:05;11.50;99.90
3154;DHT22;1587;48.630;9.046;2023-04-22T23:08:31;11.50;99.90
3154;DHT22;1587;48.630;9.046;2023-04-22T23:10:56;11.30;99.90
3154;DHT22;1587;48.630;9.046;2023-04-22T23:13:22;11.60;99.90
3154;DHT22;1587;48.630;9.046;2023-04-22T23:15:47;11.80;99.90
3154;DHT22;1587;48.630;9.046;2023-04-22T23:18:13;11.70;99.90
3154;DHT22;1587;48.630;9.046;2023-04-22T23:20:40;11.60;99.90
3154;DHT22;1587;48.630;9.046;2023-04-22T23:23:07;11.60;99.90
3154;DHT22;1587;48.630;9.046;2023-04-22T23:25:33;11.50;99.90
3154;DHT22;1587;48.630;9.046;2023-04-22T23:27:58;11.60;99.90
3154;DHT22;1587;48.630;9.046;2023-04-22T23:30:24;11.50;99.90
3154;DHT22;1587;48.630;9.046;2023-04-22T23:32:50;11.50;99.90
3154;DHT22;1587;48.630;9.046;2023-04-22T23:35:16;11.60;99.90
3154;DHT22;1587;48.630;9.046;2023-04-22T23:37:43;11.50;99.90
3154;DHT22;1587;48.630;9.046;2023-04-22T23:40:10;11.40;99.90
3154;DHT22;1587;48.630;9.046;2023-04-22T23:42:35;11.40;99.90
3154;DHT22;1587;48.630;9.046;2023-04-22T23:45:01;11.40;99.90
3154;DHT22;1587;48.630;9.046;2023-04-22T23:47:26;11.30;99.90
3154;DHT22;1587;48.630;9.046;2023-04-22T23:49:52;10.50;99.90
3154;DHT22;1587;48.630;9.046;2023-04-22T23:52:18;11.20;99.90
3154;DHT22;1587;48.630;9.046;2023-04-22T23:54:43;11.40;99.90
3154;DHT22;1587;48.630;9.046;2023-04-22T23:57:09;11.40;99.90
3154;DHT22;1587;48.630;9.046;2023-04-22T23:59:35;11.20;99.90
